sensor_id;sensor_type;location;lat;lon;timestamp;P1;durP1;ratioP1;P2;durP2;ratioP2
51814;SDS011;37874;53.158;6.766;2023-12-07T00:01:46;2.70;;;1.60;;
51814;SDS011;37874;53.158;6.766;2023-12-07T00:04:11;3.50;;;1.75;;
51814;SDS011;37874;53.158;6.766;2023-12-07T00:06:37;2.88;;;1.80;;
51814;SDS011;37874;53.158;6.766;2023-12-07T00:09:03;2.85;;;1.67;;
51814;SDS011;37874;53.158;6.766;2023-12-07T00:11:29;3.35;;;1.60;;
51814;SDS011;37874;53.158;6.766;2023-12-07T00:13:54;3.17;;;1.63;;
51814;SDS011;37874;53.158;6.766;2023-12-07T00:16:20;2.30;;;1.63;;
51814;SDS011;37874;53.158;6.766;2023-12-07T00:18:46;2.28;;;1.60;;
51814;SDS011;37874;53.158;6.766;2023-12-07T00:21:11;2.85;;;1.40;;
51814;SDS011;37874;53.158;6.766;2023-12-07T00:23:37;2.45;;;1.23;;
51814;SDS011;37874;53.158;6.766;2023-12-07T00:26:03;3.58;;;1.70;;
51814;SDS011;37874;53.158;6.766;2023-12-07T00:28:29;2.60;;;1.45;;
51814;SDS011;37874;53.158;6.766;2023-12-07T00:30:55;2.40;;;1.42;;
51814;SDS011;37874;53.158;6.766;2023-12-07T00:33:21;2.35;;;1.52;;
51814;SDS011;37874;53.158;6.766;2023-12-07T00:35:47;2.00;;;1.52;;
51814;SDS011;37874;53.158;6.766;2023-12-07T00:38:13;2.22;;;1.50;;
51814;SDS011;37874;53.158;6.766;2023-12-07T00:40:39;2.60;;;1.50;;
51814;SDS011;37874;53.158;6.766;2023-12-07T00:43:05;2.00;;;1.33;;
51814;SDS011;37874;53.158;6.766;2023-12-07T00:45:32;3.17;;;1.73;;
51814;SDS011;37874;53.158;6.766;2023-12-07T00:47:58;2.20;;;1.40;;
51814;SDS011;37874;53.158;6.766;2023-12-07T00:50:23;2.20;;;1.40;;
51814;SDS011;37874;53.158;6.766;2023-12-07T00:52:49;2.13;;;1.50;;
51814;SDS011;37874;53.158;6.766;2023-12-07T00:55:15;2.83;;;1.52;;
51814;SDS011;37874;53.158;6.766;2023-12-07T00:57:40;2.72;;;1.50;;
51814;SDS011;37874;53.158;6.766;2023-12-07T01:00:06;2.15;;;1.30;;
51814;SDS011;37874;53.158;6.766;2023-12-07T01:02:33;2.03;;;1.48;;
51814;SDS011;37874;53.158;6.766;2023-12-07T01:04:59;2.40;;;1.50;;
51814;SDS011;37874;53.158;6.766;2023-12-07T01:07:25;2.00;;;1.27;;
51814;SDS011;37874;53.158;6.766;2023-12-07T01:09:51;1.92;;;1.20;;
51814;SDS011;37874;53.158;6.766;2023-12-07T01:12:17;3.00;;;1.73;;
51814;SDS011;37874;53.158;6.766;2023-12-07T01:14:42;2.58;;;1.50;;
51814;SDS011;37874;53.158;6.766;2023-12-07T01:17:08;2.33;;;1.40;;
51814;SDS011;37874;53.158;6.766;2023-12-07T01:19:34;2.58;;;1.48;;
51814;SDS011;37874;53.158;6.766;2023-12-07T01:21:59;2.60;;;1.30;;
51814;SDS011;37874;53.158;6.766;2023-12-07T01:24:25;2.25;;;1.50;;
51814;SDS011;37874;53.158;6.766;2023-12-07T01:26:51;2.25;;;1.40;;
51814;SDS011;37874;53.158;6.766;2023-12-07T01:29:16;3.15;;;1.20;;
51814;SDS011;37874;53.158;6.766;2023-12-07T01:31:43;2.83;;;1.42;;
51814;SDS011;37874;53.158;6.766;2023-12-07T01:34:09;1.80;;;1.20;;
51814;SDS011;37874;53.158;6.766;2023-12-07T01:36:34;1.80;;;1.10;;
51814;SDS011;37874;53.158;6.766;2023-12-07T01:39:00;2.45;;;1.50;;
51814;SDS011;37874;53.158;6.766;2023-12-07T01:41:26;2.25;;;1.50;;
51814;SDS011;37874;53.158;6.766;2023-12-07T01:43:51;2.10;;;1.40;;
51814;SDS011;37874;53.158;6.766;2023-12-07T01:46:17;2.22;;;1.48;;
51814;SDS011;37874;53.158;6.766;2023-12-07T01:48:43;2.50;;;1.58;;
51814;SDS011;37874;53.158;6.766;2023-12-07T01:51:13;2.20;;;1.40;;
51814;SDS011;37874;53.158;6.766;2023-12-07T01:53:39;2.58;;;1.60;;
51814;SDS011;37874;53.158;6.766;2023-12-07T01:56:05;2.17;;;1.50;;
51814;SDS011;37874;53.158;6.766;2023-12-07T01:58:32;2.38;;;1.45;;
51814;SDS011;37874;53.158;6.766;2023-12-07T02:00:58;2.45;;;1.40;;
51814;SDS011;37874;53.158;6.766;2023-12-07T02:03:24;2.45;;;1.40;;
51814;SDS011;37874;53.158;6.766;2023-12-07T02:05:53;5.03;;;1.58;;
51814;SDS011;37874;53.158;6.766;2023-12-07T02:08:20;2.05;;;1.30;;
51814;SDS011;37874;53.158;6.766;2023-12-07T02:10:46;2.28;;;1.40;;
51814;SDS011;37874;53.158;6.766;2023-12-07T02:13:11;1.80;;;1.15;;
51814;SDS011;37874;53.158;6.766;2023-12-07T02:15:38;1.90;;;1.10;;
51814;SDS011;37874;53.158;6.766;2023-12-07T02:18:21;1.85;;;1.10;;
51814;SDS011;37874;53.158;6.766;2023-12-07T02:23:41;2.17;;;1.40;;
51814;SDS011;37874;53.158;6.766;2023-12-07T02:26:09;3.88;;;1.40;;
51814;SDS011;37874;53.158;6.766;2023-12-07T02:28:36;2.42;;;1.20;;
51814;SDS011;37874;53.158;6.766;2023-12-07T02:31:02;1.88;;;1.10;;
51814;SDS011;37874;53.158;6.766;2023-12-07T02:33:28;2.83;;;1.40;;
51814;SDS011;37874;53.158;6.766;2023-12-07T02:35:54;2.00;;;1.25;;
51814;SDS011;37874;53.158;6.766;2023-12-07T02:38:20;1.98;;;1.30;;
51814;SDS011;37874;53.158;6.766;2023-12-07T02:40:51;1.85;;;1.20;;
51814;SDS011;37874;53.158;6.766;2023-12-07T02:43:19;1.70;;;1.20;;
51814;SDS011;37874;53.158;6.766;2023-12-07T02:45:45;1.98;;;1.40;;
51814;SDS011;37874;53.158;6.766;2023-12-07T02:48:12;2.20;;;1.30;;
51814;SDS011;37874;53.158;6.766;2023-12-07T02:50:38;3.58;;;1.15;;
51814;SDS011;37874;53.158;6.766;2023-12-07T02:53:04;1.55;;;1.02;;
51814;SDS011;37874;53.158;6.766;2023-12-07T02:55:29;1.90;;;1.13;;
51814;SDS011;37874;53.158;6.766;2023-12-07T02:57:55;1.80;;;1.10;;
51814;SDS011;37874;53.158;6.766;2023-12-07T03:00:21;1.98;;;1.20;;
51814;SDS011;37874;53.158;6.766;2023-12-07T03:02:47;2.20;;;1.30;;
51814;SDS011;37874;53.158;6.766;2023-12-07T03:05:13;2.47;;;1.48;;
51814;SDS011;37874;53.158;6.766;2023-12-07T03:07:39;2.70;;;1.20;;
51814;SDS011;37874;53.158;6.766;2023-12-07T03:10:04;1.63;;;1.00;;
51814;SDS011;37874;53.158;6.766;2023-12-07T03:12:31;2.03;;;1.25;;
51814;SDS011;37874;53.158;6.766;2023-12-07T03:14:56;1.73;;;1.05;;
51814;SDS011;37874;53.158;6.766;2023-12-07T03:17:22;2.20;;;1.33;;
51814;SDS011;37874;53.158;6.766;2023-12-07T03:19:48;2.30;;;1.10;;
51814;SDS011;37874;53.158;6.766;2023-12-07T03:22:14;2.20;;;1.10;;
51814;SDS011;37874;53.158;6.766;2023-12-07T03:24:40;1.77;;;1.20;;
51814;SDS011;37874;53.158;6.766;2023-12-07T03:27:11;1.65;;;1.00;;
51814;SDS011;37874;53.158;6.766;2023-12-07T03:29:37;2.25;;;1.25;;
51814;SDS011;37874;53.158;6.766;2023-12-07T03:32:02;1.75;;;1.08;;
51814;SDS011;37874;53.158;6.766;2023-12-07T03:34:28;1.77;;;0.98;;
51814;SDS011;37874;53.158;6.766;2023-12-07T03:36:54;1.98;;;1.10;;
51814;SDS011;37874;53.158;6.766;2023-12-07T03:39:19;2.63;;;1.10;;
51814;SDS011;37874;53.158;6.766;2023-12-07T03:41:47;1.60;;;1.00;;
51814;SDS011;37874;53.158;6.766;2023-12-07T03:44:14;2.13;;;1.23;;
51814;SDS011;37874;53.158;6.766;2023-12-07T03:46:40;2.20;;;1.10;;
51814;SDS011;37874;53.158;6.766;2023-12-07T03:49:05;1.95;;;1.20;;
51814;SDS011;37874;53.158;6.766;2023-12-07T03:51:31;1.45;;;1.00;;
51814;SDS011;37874;53.158;6.766;2023-12-07T03:53:57;1.60;;;1.10;;
51814;SDS011;37874;53.158;6.766;2023-12-07T03:56:23;2.13;;;1.17;;
51814;SDS011;37874;53.158;6.766;2023-12-07T03:58:49;1.95;;;1.20;;
51814;SDS011;37874;53.158;6.766;2023-12-07T04:01:15;2.08;;;1.10;;
51814;SDS011;37874;53.158;6.766;2023-12-07T04:03:41;1.60;;;1.10;;
51814;SDS011;37874;53.158;6.766;2023-12-07T04:06:07;1.95;;;1.20;;
51814;SDS011;37874;53.158;6.766;2023-12-07T04:08:33;1.92;;;1.17;;
51814;SDS011;37874;53.158;6.766;2023-12-07T04:10:58;1.70;;;1.00;;
51814;SDS011;37874;53.158;6.766;2023-12-07T04:13:24;1.80;;;1.00;;
51814;SDS011;37874;53.158;6.766;2023-12-07T04:15:50;1.45;;;0.90;;
51814;SDS011;37874;53.158;6.766;2023-12-07T04:18:15;1.70;;;1.00;;
51814;SDS011;37874;53.158;6.766;2023-12-07T04:20:41;2.10;;;1.20;;
51814;SDS011;37874;53.158;6.766;2023-12-07T04:23:07;1.75;;;0.95;;
51814;SDS011;37874;53.158;6.766;2023-12-07T04:25:32;1.60;;;1.00;;
51814;SDS011;37874;53.158;6.766;2023-12-07T04:27:58;1.70;;;1.00;;
51814;SDS011;37874;53.158;6.766;2023-12-07T04:30:24;1.40;;;0.90;;
51814;SDS011;37874;53.158;6.766;2023-12-07T04:32:50;2.53;;;1.15;;
51814;SDS011;37874;53.158;6.766;2023-12-07T04:35:15;2.08;;;1.23;;
51814;SDS011;37874;53.158;6.766;2023-12-07T04:37:41;1.50;;;1.00;;
51814;SDS011;37874;53.158;6.766;2023-12-07T04:40:07;2.45;;;1.20;;
51814;SDS011;37874;53.158;6.766;2023-12-07T04:42:33;1.42;;;0.80;;
51814;SDS011;37874;53.158;6.766;2023-12-07T04:44:59;1.65;;;1.00;;
51814;SDS011;37874;53.158;6.766;2023-12-07T04:47:25;2.67;;;1.10;;
51814;SDS011;37874;53.158;6.766;2023-12-07T04:49:50;1.65;;;1.13;;
51814;SDS011;37874;53.158;6.766;2023-12-07T04:52:16;1.38;;;0.88;;
51814;SDS011;37874;53.158;6.766;2023-12-07T04:54:42;2.00;;;0.95;;
51814;SDS011;37874;53.158;6.766;2023-12-07T04:57:07;2.00;;;0.90;;
51814;SDS011;37874;53.158;6.766;2023-12-07T04:59:34;3.08;;;1.10;;
51814;SDS011;37874;53.158;6.766;2023-12-07T05:02:00;2.38;;;1.20;;
51814;SDS011;37874;53.158;6.766;2023-12-07T05:04:27;1.88;;;1.10;;
51814;SDS011;37874;53.158;6.766;2023-12-07T05:06:52;2.47;;;1.23;;
51814;SDS011;37874;53.158;6.766;2023-12-07T05:09:18;1.85;;;1.17;;
51814;SDS011;37874;53.158;6.766;2023-12-07T05:11:44;2.58;;;1.17;;
51814;SDS011;37874;53.158;6.766;2023-12-07T05:14:10;1.40;;;0.90;;
51814;SDS011;37874;53.158;6.766;2023-12-07T05:16:36;1.85;;;1.10;;
51814;SDS011;37874;53.158;6.766;2023-12-07T05:19:02;1.98;;;1.15;;
51814;SDS011;37874;53.158;6.766;2023-12-07T05:21:28;2.17;;;1.40;;
51814;SDS011;37874;53.158;6.766;2023-12-07T05:23:53;1.85;;;1.13;;
51814;SDS011;37874;53.158;6.766;2023-12-07T05:26:19;1.73;;;1.13;;
51814;SDS011;37874;53.158;6.766;2023-12-07T05:28:47;1.98;;;1.20;;
51814;SDS011;37874;53.158;6.766;2023-12-07T05:31:16;1.75;;;1.00;;
51814;SDS011;37874;53.158;6.766;2023-12-07T05:33:43;1.88;;;1.10;;
51814;SDS011;37874;53.158;6.766;2023-12-07T05:36:09;2.00;;;1.15;;
51814;SDS011;37874;53.158;6.766;2023-12-07T05:38:34;1.92;;;1.20;;
51814;SDS011;37874;53.158;6.766;2023-12-07T05:41:00;1.85;;;1.10;;
51814;SDS011;37874;53.158;6.766;2023-12-07T05:43:26;2.25;;;1.00;;
51814;SDS011;37874;53.158;6.766;2023-12-07T05:45:52;1.90;;;1.27;;
51814;SDS011;37874;53.158;6.766;2023-12-07T05:48:17;2.17;;;1.15;;
51814;SDS011;37874;53.158;6.766;2023-12-07T05:50:43;1.90;;;1.38;;
51814;SDS011;37874;53.158;6.766;2023-12-07T05:53:08;1.83;;;1.20;;
51814;SDS011;37874;53.158;6.766;2023-12-07T05:55:35;1.58;;;1.00;;
51814;SDS011;37874;53.158;6.766;2023-12-07T05:58:01;2.05;;;1.17;;
51814;SDS011;37874;53.158;6.766;2023-12-07T06:00:29;1.92;;;1.05;;
51814;SDS011;37874;53.158;6.766;2023-12-07T06:02:54;1.52;;;1.00;;
51814;SDS011;37874;53.158;6.766;2023-12-07T06:05:20;2.50;;;1.20;;
51814;SDS011;37874;53.158;6.766;2023-12-07T06:07:46;1.50;;;1.05;;
51814;SDS011;37874;53.158;6.766;2023-12-07T06:10:11;2.10;;;1.20;;
51814;SDS011;37874;53.158;6.766;2023-12-07T06:12:37;1.77;;;1.08;;
51814;SDS011;37874;53.158;6.766;2023-12-07T06:15:04;2.72;;;1.25;;
51814;SDS011;37874;53.158;6.766;2023-12-07T06:17:32;2.15;;;1.30;;
51814;SDS011;37874;53.158;6.766;2023-12-07T06:19:59;2.45;;;1.30;;
51814;SDS011;37874;53.158;6.766;2023-12-07T06:22:24;1.50;;;1.00;;
51814;SDS011;37874;53.158;6.766;2023-12-07T06:24:50;2.10;;;1.42;;
51814;SDS011;37874;53.158;6.766;2023-12-07T06:27:16;1.98;;;1.35;;
51814;SDS011;37874;53.158;6.766;2023-12-07T06:29:41;2.13;;;1.17;;
51814;SDS011;37874;53.158;6.766;2023-12-07T06:32:07;2.25;;;1.20;;
51814;SDS011;37874;53.158;6.766;2023-12-07T06:34:32;1.95;;;1.27;;
51814;SDS011;37874;53.158;6.766;2023-12-07T06:36:58;2.85;;;1.55;;
51814;SDS011;37874;53.158;6.766;2023-12-07T06:39:24;1.75;;;0.98;;
51814;SDS011;37874;53.158;6.766;2023-12-07T06:41:50;1.88;;;1.10;;
51814;SDS011;37874;53.158;6.766;2023-12-07T06:44:15;1.85;;;1.17;;
51814;SDS011;37874;53.158;6.766;2023-12-07T06:46:41;1.92;;;1.10;;
51814;SDS011;37874;53.158;6.766;2023-12-07T06:49:07;2.03;;;1.27;;
51814;SDS011;37874;53.158;6.766;2023-12-07T06:51:36;2.72;;;1.20;;
51814;SDS011;37874;53.158;6.766;2023-12-07T06:54:38;3.70;;;1.13;;
51814;SDS011;37874;53.158;6.766;2023-12-07T06:57:06;2.97;;;1.30;;
51814;SDS011;37874;53.158;6.766;2023-12-07T06:59:33;2.08;;;1.20;;
51814;SDS011;37874;53.158;6.766;2023-12-07T07:01:58;2.72;;;1.23;;
51814;SDS011;37874;53.158;6.766;2023-12-07T07:04:24;1.40;;;1.00;;
51814;SDS011;37874;53.158;6.766;2023-12-07T07:06:50;1.80;;;0.95;;
51814;SDS011;37874;53.158;6.766;2023-12-07T07:09:17;3.17;;;1.10;;
51814;SDS011;37874;53.158;6.766;2023-12-07T07:11:47;2.42;;;1.20;;
51814;SDS011;37874;53.158;6.766;2023-12-07T07:14:13;2.45;;;1.33;;
51814;SDS011;37874;53.158;6.766;2023-12-07T07:16:39;1.55;;;1.05;;
51814;SDS011;37874;53.158;6.766;2023-12-07T07:19:05;3.58;;;1.20;;
51814;SDS011;37874;53.158;6.766;2023-12-07T07:21:31;2.22;;;1.00;;
51814;SDS011;37874;53.158;6.766;2023-12-07T07:23:56;2.08;;;1.20;;
51814;SDS011;37874;53.158;6.766;2023-12-07T07:26:22;2.85;;;1.33;;
51814;SDS011;37874;53.158;6.766;2023-12-07T07:28:50;2.38;;;1.33;;
51814;SDS011;37874;53.158;6.766;2023-12-07T07:31:16;1.95;;;1.08;;
51814;SDS011;37874;53.158;6.766;2023-12-07T07:33:43;1.98;;;1.27;;
51814;SDS011;37874;53.158;6.766;2023-12-07T07:36:09;2.03;;;1.27;;
51814;SDS011;37874;53.158;6.766;2023-12-07T07:38:36;2.53;;;1.40;;
51814;SDS011;37874;53.158;6.766;2023-12-07T07:41:02;1.85;;;1.10;;
51814;SDS011;37874;53.158;6.766;2023-12-07T07:43:28;2.33;;;1.20;;
51814;SDS011;37874;53.158;6.766;2023-12-07T07:45:54;2.20;;;1.20;;
51814;SDS011;37874;53.158;6.766;2023-12-07T07:48:21;1.55;;;1.00;;
51814;SDS011;37874;53.158;6.766;2023-12-07T07:50:47;1.85;;;1.10;;
51814;SDS011;37874;53.158;6.766;2023-12-07T07:53:12;2.58;;;1.52;;
51814;SDS011;37874;53.158;6.766;2023-12-07T07:55:38;2.65;;;1.10;;
51814;SDS011;37874;53.158;6.766;2023-12-07T07:58:04;2.10;;;1.30;;
51814;SDS011;37874;53.158;6.766;2023-12-07T08:00:31;2.40;;;1.27;;
51814;SDS011;37874;53.158;6.766;2023-12-07T08:02:58;2.83;;;1.20;;
51814;SDS011;37874;53.158;6.766;2023-12-07T08:05:24;1.83;;;1.27;;
51814;SDS011;37874;53.158;6.766;2023-12-07T08:07:50;2.08;;;1.20;;
51814;SDS011;37874;53.158;6.766;2023-12-07T08:10:16;1.83;;;1.13;;
51814;SDS011;37874;53.158;6.766;2023-12-07T08:12:41;2.05;;;1.30;;
51814;SDS011;37874;53.158;6.766;2023-12-07T08:15:08;2.20;;;1.30;;
51814;SDS011;37874;53.158;6.766;2023-12-07T08:17:40;2.90;;;1.30;;
51814;SDS011;37874;53.158;6.766;2023-12-07T08:20:07;2.67;;;1.38;;
51814;SDS011;37874;53.158;6.766;2023-12-07T08:22:35;2.78;;;1.30;;
51814;SDS011;37874;53.158;6.766;2023-12-07T08:25:07;2.08;;;1.35;;
51814;SDS011;37874;53.158;6.766;2023-12-07T08:27:34;2.55;;;1.35;;
51814;SDS011;37874;53.158;6.766;2023-12-07T08:30:02;2.90;;;1.50;;
51814;SDS011;37874;53.158;6.766;2023-12-07T08:32:28;4.90;;;1.40;;
51814;SDS011;37874;53.158;6.766;2023-12-07T08:34:54;2.80;;;1.30;;
51814;SDS011;37874;53.158;6.766;2023-12-07T08:37:20;2.50;;;1.42;;
51814;SDS011;37874;53.158;6.766;2023-12-07T08:39:46;1.80;;;1.10;;
51814;SDS011;37874;53.158;6.766;2023-12-07T08:42:11;1.83;;;1.10;;
51814;SDS011;37874;53.158;6.766;2023-12-07T08:44:37;2.40;;;1.42;;
51814;SDS011;37874;53.158;6.766;2023-12-07T08:47:03;3.17;;;1.10;;
51814;SDS011;37874;53.158;6.766;2023-12-07T08:49:30;1.83;;;1.15;;
51814;SDS011;37874;53.158;6.766;2023-12-07T08:51:56;1.90;;;1.30;;
51814;SDS011;37874;53.158;6.766;2023-12-07T08:54:22;2.08;;;1.10;;
51814;SDS011;37874;53.158;6.766;2023-12-07T08:56:47;2.35;;;1.23;;
51814;SDS011;37874;53.158;6.766;2023-12-07T08:59:13;2.28;;;1.30;;
51814;SDS011;37874;53.158;6.766;2023-12-07T09:01:39;2.30;;;1.30;;
51814;SDS011;37874;53.158;6.766;2023-12-07T09:04:05;2.20;;;1.10;;
51814;SDS011;37874;53.158;6.766;2023-12-07T09:06:31;2.45;;;1.40;;
51814;SDS011;37874;53.158;6.766;2023-12-07T09:08:56;2.40;;;1.42;;
51814;SDS011;37874;53.158;6.766;2023-12-07T09:11:22;2.38;;;1.50;;
51814;SDS011;37874;53.158;6.766;2023-12-07T09:13:48;3.17;;;1.23;;
51814;SDS011;37874;53.158;6.766;2023-12-07T09:16:14;2.22;;;1.30;;
51814;SDS011;37874;53.158;6.766;2023-12-07T09:18:43;2.33;;;1.23;;
51814;SDS011;37874;53.158;6.766;2023-12-07T09:21:15;1.80;;;1.13;;
51814;SDS011;37874;53.158;6.766;2023-12-07T09:23:41;2.42;;;1.30;;
51814;SDS011;37874;53.158;6.766;2023-12-07T09:26:06;2.67;;;1.50;;
51814;SDS011;37874;53.158;6.766;2023-12-07T09:28:33;3.10;;;1.45;;
51814;SDS011;37874;53.158;6.766;2023-12-07T09:30:59;3.50;;;1.50;;
51814;SDS011;37874;53.158;6.766;2023-12-07T09:33:25;2.42;;;1.40;;
51814;SDS011;37874;53.158;6.766;2023-12-07T09:35:51;2.40;;;1.30;;
51814;SDS011;37874;53.158;6.766;2023-12-07T09:38:16;2.00;;;1.20;;
51814;SDS011;37874;53.158;6.766;2023-12-07T09:40:43;2.22;;;1.40;;
51814;SDS011;37874;53.158;6.766;2023-12-07T09:43:10;3.58;;;1.60;;
51814;SDS011;37874;53.158;6.766;2023-12-07T09:45:37;1.77;;;1.27;;
51814;SDS011;37874;53.158;6.766;2023-12-07T09:48:03;2.42;;;1.40;;
51814;SDS011;37874;53.158;6.766;2023-12-07T09:50:29;2.10;;;1.40;;
51814;SDS011;37874;53.158;6.766;2023-12-07T09:52:56;2.88;;;1.50;;
51814;SDS011;37874;53.158;6.766;2023-12-07T09:55:23;2.92;;;1.73;;
51814;SDS011;37874;53.158;6.766;2023-12-07T09:57:52;5.80;;;1.73;;
51814;SDS011;37874;53.158;6.766;2023-12-07T10:00:21;2.50;;;1.60;;
51814;SDS011;37874;53.158;6.766;2023-12-07T10:02:47;2.00;;;1.40;;
51814;SDS011;37874;53.158;6.766;2023-12-07T10:05:13;1.75;;;1.23;;
51814;SDS011;37874;53.158;6.766;2023-12-07T10:07:50;2.15;;;1.40;;
51814;SDS011;37874;53.158;6.766;2023-12-07T10:10:17;2.03;;;1.25;;
51814;SDS011;37874;53.158;6.766;2023-12-07T10:12:44;4.35;;;1.70;;
51814;SDS011;37874;53.158;6.766;2023-12-07T10:15:21;2.40;;;1.50;;
51814;SDS011;37874;53.158;6.766;2023-12-07T10:17:52;2.75;;;1.48;;
51814;SDS011;37874;53.158;6.766;2023-12-07T10:20:23;2.67;;;1.50;;
51814;SDS011;37874;53.158;6.766;2023-12-07T10:23:05;3.10;;;1.27;;
51814;SDS011;37874;53.158;6.766;2023-12-07T10:25:37;4.22;;;1.70;;
51814;SDS011;37874;53.158;6.766;2023-12-07T10:28:04;2.22;;;1.30;;
51814;SDS011;37874;53.158;6.766;2023-12-07T10:30:32;2.60;;;1.38;;
51814;SDS011;37874;53.158;6.766;2023-12-07T10:32:59;2.05;;;1.30;;
51814;SDS011;37874;53.158;6.766;2023-12-07T10:35:25;2.50;;;1.52;;
51814;SDS011;37874;53.158;6.766;2023-12-07T10:37:50;2.47;;;1.55;;
51814;SDS011;37874;53.158;6.766;2023-12-07T10:40:16;2.40;;;1.30;;
51814;SDS011;37874;53.158;6.766;2023-12-07T10:42:47;2.63;;;1.40;;
51814;SDS011;37874;53.158;6.766;2023-12-07T10:45:13;3.42;;;1.60;;
51814;SDS011;37874;53.158;6.766;2023-12-07T10:47:44;2.47;;;1.30;;
51814;SDS011;37874;53.158;6.766;2023-12-07T10:50:09;2.00;;;1.08;;
51814;SDS011;37874;53.158;6.766;2023-12-07T10:53:01;2.45;;;1.40;;
51814;SDS011;37874;53.158;6.766;2023-12-07T10:55:29;1.92;;;1.38;;
51814;SDS011;37874;53.158;6.766;2023-12-07T10:57:59;2.58;;;1.35;;
51814;SDS011;37874;53.158;6.766;2023-12-07T11:00:25;2.60;;;1.25;;
51814;SDS011;37874;53.158;6.766;2023-12-07T11:02:53;1.83;;;1.20;;
51814;SDS011;37874;53.158;6.766;2023-12-07T11:05:19;1.80;;;1.10;;
51814;SDS011;37874;53.158;6.766;2023-12-07T11:08:01;3.45;;;1.33;;
51814;SDS011;37874;53.158;6.766;2023-12-07T11:11:36;2.50;;;1.02;;
51814;SDS011;37874;53.158;6.766;2023-12-07T11:14:19;3.72;;;1.38;;
51814;SDS011;37874;53.158;6.766;2023-12-07T11:16:46;1.98;;;1.30;;
51814;SDS011;37874;53.158;6.766;2023-12-07T11:22:09;1.90;;;1.13;;
51814;SDS011;37874;53.158;6.766;2023-12-07T11:24:37;2.17;;;1.20;;
51814;SDS011;37874;53.158;6.766;2023-12-07T11:27:19;2.28;;;1.20;;
51814;SDS011;37874;53.158;6.766;2023-12-07T11:29:47;1.95;;;1.25;;
51814;SDS011;37874;53.158;6.766;2023-12-07T11:32:15;2.50;;;1.13;;
51814;SDS011;37874;53.158;6.766;2023-12-07T11:34:41;2.28;;;1.30;;
51814;SDS011;37874;53.158;6.766;2023-12-07T11:37:13;1.70;;;1.08;;
51814;SDS011;37874;53.158;6.766;2023-12-07T11:39:43;2.15;;;1.35;;
51814;SDS011;37874;53.158;6.766;2023-12-07T11:42:12;2.35;;;1.10;;
51814;SDS011;37874;53.158;6.766;2023-12-07T11:44:43;2.38;;;1.25;;
51814;SDS011;37874;53.158;6.766;2023-12-07T11:47:15;1.80;;;1.08;;
51814;SDS011;37874;53.158;6.766;2023-12-07T11:49:44;2.17;;;1.15;;
51814;SDS011;37874;53.158;6.766;2023-12-07T11:52:14;4.80;;;1.10;;
51814;SDS011;37874;53.158;6.766;2023-12-07T11:54:44;3.17;;;1.20;;
51814;SDS011;37874;53.158;6.766;2023-12-07T11:57:14;4.15;;;1.20;;
51814;SDS011;37874;53.158;6.766;2023-12-07T11:59:41;3.35;;;1.20;;
51814;SDS011;37874;53.158;6.766;2023-12-07T12:02:10;2.00;;;1.13;;
51814;SDS011;37874;53.158;6.766;2023-12-07T12:04:36;1.83;;;1.10;;
51814;SDS011;37874;53.158;6.766;2023-12-07T12:07:03;2.20;;;1.30;;
51814;SDS011;37874;53.158;6.766;2023-12-07T12:09:29;2.25;;;1.23;;
51814;SDS011;37874;53.158;6.766;2023-12-07T12:11:56;1.80;;;1.13;;
51814;SDS011;37874;53.158;6.766;2023-12-07T12:14:25;2.00;;;1.17;;
51814;SDS011;37874;53.158;6.766;2023-12-07T12:16:54;2.33;;;1.25;;
51814;SDS011;37874;53.158;6.766;2023-12-07T12:19:21;2.35;;;1.35;;
51814;SDS011;37874;53.158;6.766;2023-12-07T12:21:49;1.98;;;1.20;;
51814;SDS011;37874;53.158;6.766;2023-12-07T12:24:16;2.30;;;1.27;;
51814;SDS011;37874;53.158;6.766;2023-12-07T12:26:42;1.88;;;1.20;;
51814;SDS011;37874;53.158;6.766;2023-12-07T12:29:14;3.25;;;1.10;;
51814;SDS011;37874;53.158;6.766;2023-12-07T12:31:40;2.35;;;1.20;;
51814;SDS011;37874;53.158;6.766;2023-12-07T12:34:06;1.98;;;1.20;;
51814;SDS011;37874;53.158;6.766;2023-12-07T12:36:37;2.63;;;1.23;;
51814;SDS011;37874;53.158;6.766;2023-12-07T12:39:03;2.33;;;1.25;;
51814;SDS011;37874;53.158;6.766;2023-12-07T12:41:33;2.35;;;1.10;;
51814;SDS011;37874;53.158;6.766;2023-12-07T12:43:59;1.80;;;1.30;;
51814;SDS011;37874;53.158;6.766;2023-12-07T12:46:25;2.30;;;1.40;;
51814;SDS011;37874;53.158;6.766;2023-12-07T12:51:24;1.75;;;1.20;;
51814;SDS011;37874;53.158;6.766;2023-12-07T12:53:51;1.67;;;1.10;;
51814;SDS011;37874;53.158;6.766;2023-12-07T12:56:18;2.15;;;1.40;;
51814;SDS011;37874;53.158;6.766;2023-12-07T12:58:45;2.67;;;1.30;;
51814;SDS011;37874;53.158;6.766;2023-12-07T13:01:11;2.13;;;1.40;;
51814;SDS011;37874;53.158;6.766;2023-12-07T13:03:37;3.13;;;1.50;;
51814;SDS011;37874;53.158;6.766;2023-12-07T13:06:06;2.40;;;1.67;;
51814;SDS011;37874;53.158;6.766;2023-12-07T13:08:32;2.15;;;1.23;;
51814;SDS011;37874;53.158;6.766;2023-12-07T13:10:58;2.03;;;1.33;;
51814;SDS011;37874;53.158;6.766;2023-12-07T13:13:26;3.00;;;1.55;;
51814;SDS011;37874;53.158;6.766;2023-12-07T13:15:52;2.97;;;1.70;;
51814;SDS011;37874;53.158;6.766;2023-12-07T13:18:17;4.00;;;1.60;;
51814;SDS011;37874;53.158;6.766;2023-12-07T13:20:49;2.88;;;1.98;;
51814;SDS011;37874;53.158;6.766;2023-12-07T13:23:15;2.78;;;1.92;;
51814;SDS011;37874;53.158;6.766;2023-12-07T13:25:41;5.28;;;1.85;;
51814;SDS011;37874;53.158;6.766;2023-12-07T13:28:06;2.80;;;1.90;;
51814;SDS011;37874;53.158;6.766;2023-12-07T13:33:49;3.75;;;1.77;;
51814;SDS011;37874;53.158;6.766;2023-12-07T13:37:29;7.07;;;1.70;;
51814;SDS011;37874;53.158;6.766;2023-12-07T13:40:38;2.72;;;1.70;;
51814;SDS011;37874;53.158;6.766;2023-12-07T13:47:00;3.15;;;2.10;;
51814;SDS011;37874;53.158;6.766;2023-12-07T13:49:25;2.65;;;1.75;;
51814;SDS011;37874;53.158;6.766;2023-12-07T13:51:54;2.95;;;2.15;;
51814;SDS011;37874;53.158;6.766;2023-12-07T13:54:20;3.30;;;1.95;;
51814;SDS011;37874;53.158;6.766;2023-12-07T13:56:47;2.90;;;1.88;;
51814;SDS011;37874;53.158;6.766;2023-12-07T14:14:22;3.47;;;2.15;;
51814;SDS011;37874;53.158;6.766;2023-12-07T14:56:57;3.88;;;2.65;;
51814;SDS011;37874;53.158;6.766;2023-12-07T14:59:38;5.13;;;3.33;;
51814;SDS011;37874;53.158;6.766;2023-12-07T15:02:28;5.45;;;3.63;;
51814;SDS011;37874;53.158;6.766;2023-12-07T15:05:06;5.15;;;3.33;;
51814;SDS011;37874;53.158;6.766;2023-12-07T15:07:34;5.10;;;3.80;;
51814;SDS011;37874;53.158;6.766;2023-12-07T15:10:09;5.50;;;3.53;;
51814;SDS011;37874;53.158;6.766;2023-12-07T15:12:40;5.75;;;3.95;;
51814;SDS011;37874;53.158;6.766;2023-12-07T15:15:17;6.55;;;4.05;;
51814;SDS011;37874;53.158;6.766;2023-12-07T15:17:50;6.70;;;4.07;;
51814;SDS011;37874;53.158;6.766;2023-12-07T15:20:22;6.80;;;4.13;;
51814;SDS011;37874;53.158;6.766;2023-12-07T15:22:53;6.30;;;4.00;;
51814;SDS011;37874;53.158;6.766;2023-12-07T15:25:36;7.03;;;4.22;;
51814;SDS011;37874;53.158;6.766;2023-12-07T15:28:18;7.88;;;4.72;;
51814;SDS011;37874;53.158;6.766;2023-12-07T15:31:22;7.45;;;4.70;;
51814;SDS011;37874;53.158;6.766;2023-12-07T15:34:00;9.07;;;5.55;;
51814;SDS011;37874;53.158;6.766;2023-12-07T15:36:37;9.07;;;5.32;;
51814;SDS011;37874;53.158;6.766;2023-12-07T15:39:24;8.73;;;5.40;;
51814;SDS011;37874;53.158;6.766;2023-12-07T15:42:11;9.63;;;5.70;;
51814;SDS011;37874;53.158;6.766;2023-12-07T15:44:45;11.05;;;6.13;;
51814;SDS011;37874;53.158;6.766;2023-12-07T15:47:28;10.27;;;6.22;;
51814;SDS011;37874;53.158;6.766;2023-12-07T15:50:01;10.30;;;6.50;;
51814;SDS011;37874;53.158;6.766;2023-12-07T15:52:29;9.32;;;6.47;;
51814;SDS011;37874;53.158;6.766;2023-12-07T15:55:09;7.50;;;5.40;;
51814;SDS011;37874;53.158;6.766;2023-12-07T15:57:45;9.98;;;6.28;;
51814;SDS011;37874;53.158;6.766;2023-12-07T16:00:18;11.05;;;6.50;;
51814;SDS011;37874;53.158;6.766;2023-12-07T16:02:53;13.32;;;6.22;;
51814;SDS011;37874;53.158;6.766;2023-12-07T16:05:24;10.23;;;6.22;;